createdAt,value
2019-01-29T00:00:33.032Z,0.50
2019-01-29T00:03:04.038Z,0.50
2019-01-29T00:05:34.984Z,0.40
2019-01-29T00:08:06.066Z,0.40
2019-01-29T00:10:36.858Z,0.30
2019-01-29T00:13:07.612Z,0.30
2019-01-29T00:15:38.349Z,0.20
2019-01-29T00:18:09.095Z,0.20
2019-01-29T00:20:39.797Z,0.20
2019-01-29T00:23:10.611Z,0.10
2019-01-29T00:25:41.270Z,0.10
2019-01-29T00:28:11.999Z,0.10
2019-01-29T00:30:42.838Z,0.10
2019-01-29T00:33:13.602Z,0.20
2019-01-29T00:35:44.378Z,0.30
2019-01-29T00:38:15.082Z,0.30
2019-01-29T00:40:45.880Z,0.40
2019-01-29T00:43:16.612Z,0.40
2019-01-29T00:45:47.369Z,0.40
2019-01-29T00:48:18.160Z,0.50
2019-01-29T00:50:48.903Z,0.70
2019-01-29T00:53:19.708Z,0.80
2019-01-29T00:55:50.466Z,1.00
2019-01-29T00:58:21.121Z,1.00
2019-01-29T01:02:13.678Z,1.00
2019-01-29T01:04:45.836Z,1.00
2019-01-29T01:07:16.630Z,1.20
2019-01-29T01:09:47.975Z,1.30
2019-01-29T01:12:18.743Z,1.30
2019-01-29T01:14:49.490Z,1.30
2019-01-29T01:17:20.386Z,1.30
2019-01-29T01:19:51.090Z,1.30
2019-01-29T01:22:23.421Z,1.20
2019-01-29T01:24:54.350Z,1.20
2019-01-29T01:27:26.079Z,1.20
2019-01-29T01:29:56.781Z,1.10
2019-01-29T01:32:27.498Z,1.10
2019-01-29T01:34:58.214Z,1.00
2019-01-29T01:37:29.038Z,1.00
2019-01-29T01:39:59.839Z,0.90
2019-01-29T01:42:30.592Z,0.90
2019-01-29T01:45:01.257Z,0.90
2019-01-29T01:47:31.989Z,0.90
2019-01-29T01:50:02.786Z,1.00
2019-01-29T02:08:40.249Z,1.30
2019-01-29T02:11:11.003Z,1.30
2019-01-29T02:13:41.726Z,1.30
2019-01-29T02:16:12.376Z,1.30
2019-01-29T02:18:43.110Z,1.40
2019-01-29T02:21:13.957Z,1.40
2019-01-29T02:23:47.410Z,1.30
2019-01-29T02:26:18.149Z,1.30
2019-01-29T02:28:48.779Z,1.30
2019-01-29T02:31:20.460Z,1.30
2019-01-29T02:33:51.077Z,1.40
2019-01-29T02:36:21.673Z,1.40
2019-01-29T02:38:52.431Z,1.40
2019-01-29T02:41:23.126Z,1.50
2019-01-29T02:43:53.765Z,1.50
2019-01-29T02:46:24.481Z,1.50
2019-01-29T02:48:55.170Z,1.50
2019-01-29T02:51:25.898Z,1.60
2019-01-29T02:53:56.554Z,1.60
2019-01-29T02:56:27.277Z,1.60
2019-01-29T02:58:57.958Z,1.70
2019-01-29T03:01:28.665Z,1.70
2019-01-29T03:03:59.393Z,1.70
2019-01-29T03:06:30.048Z,1.70
2019-01-29T03:09:00.701Z,1.60
2019-01-29T03:11:32.429Z,1.60
2019-01-29T03:14:03.230Z,1.50
2019-01-29T03:16:33.958Z,1.40
2019-01-29T03:19:04.878Z,1.40
2019-01-29T03:21:35.612Z,1.40
2019-01-29T03:24:06.283Z,1.40
2019-01-29T03:26:37.162Z,1.30
2019-01-29T03:29:07.954Z,1.20
2019-01-29T03:31:38.697Z,1.20
2019-01-29T03:34:09.584Z,1.10
2019-01-29T03:36:41.833Z,1.10
2019-01-29T03:39:12.688Z,1.00
2019-01-29T03:41:44.547Z,1.00
2019-01-29T03:44:15.476Z,1.00
2019-01-29T03:46:46.158Z,1.10
2019-01-29T03:49:16.798Z,1.00
2019-01-29T03:51:48.618Z,1.10
2019-01-29T03:54:19.682Z,1.10
2019-01-29T03:56:50.382Z,1.20
2019-01-29T03:59:21.129Z,1.20
2019-01-29T04:01:51.898Z,1.20
2019-01-29T04:04:22.656Z,1.20
2019-01-29T04:06:53.285Z,1.20
2019-01-29T04:09:24.022Z,1.20
2019-01-29T04:11:54.717Z,1.20
2019-01-29T04:14:25.494Z,1.20
2019-01-29T04:16:56.117Z,1.30
2019-01-29T04:19:28.416Z,1.30
2019-01-29T04:21:59.082Z,1.20
2019-01-29T04:24:29.762Z,1.10
2019-01-29T04:27:00.470Z,1.10
2019-01-29T04:29:31.286Z,1.10
2019-01-29T04:32:04.260Z,1.10
2019-01-29T04:34:35.048Z,1.20
2019-01-29T04:37:05.750Z,1.20
2019-01-29T04:39:36.367Z,1.10
2019-01-29T04:42:07.008Z,1.10
2019-01-29T04:44:37.648Z,1.20
2019-01-29T04:47:09.921Z,1.10
2019-01-29T04:49:40.745Z,1.10
2019-01-29T04:52:11.523Z,1.00
2019-01-29T04:54:43.556Z,1.00
2019-01-29T04:57:14.317Z,1.00
2019-01-29T04:59:45.026Z,1.00
2019-01-29T05:02:15.787Z,1.00
2019-01-29T05:04:46.597Z,1.00
2019-01-29T05:07:17.419Z,1.00
2019-01-29T05:09:48.169Z,1.00
2019-01-29T05:12:19.010Z,1.00
2019-01-29T05:14:49.711Z,1.00
2019-01-29T05:17:20.427Z,1.00
2019-01-29T05:19:51.139Z,1.00
2019-01-29T05:22:21.871Z,1.00
2019-01-29T05:24:52.624Z,1.00
2019-01-29T05:27:23.514Z,1.10
2019-01-29T05:29:54.212Z,1.10
2019-01-29T05:32:24.953Z,1.20
2019-01-29T05:34:55.779Z,1.10
2019-01-29T05:37:26.497Z,1.10
2019-01-29T05:39:57.210Z,1.10
2019-01-29T05:42:27.915Z,1.10
2019-01-29T05:44:58.697Z,1.10
2019-01-29T05:47:29.437Z,1.10
2019-01-29T05:50:00.300Z,1.10
2019-01-29T05:52:31.050Z,1.10
2019-01-29T05:55:01.843Z,1.00
2019-01-29T05:57:32.610Z,1.00
2019-01-29T06:00:03.346Z,1.00
2019-01-29T06:02:34.061Z,1.10
2019-01-29T06:05:05.698Z,1.10
2019-01-29T06:07:36.855Z,1.10
2019-01-29T06:10:08.018Z,1.20
2019-01-29T06:12:38.688Z,1.20
2019-01-29T06:15:11.738Z,1.20
2019-01-29T06:17:42.479Z,1.20
2019-01-29T06:20:15.804Z,1.10
2019-01-29T06:22:48.342Z,1.10
2019-01-29T06:25:19.198Z,1.10
2019-01-29T06:27:49.983Z,1.10
2019-01-29T06:30:23.171Z,1.10
2019-01-29T06:32:53.938Z,1.20
2019-01-29T06:35:24.813Z,1.10
2019-01-29T06:37:55.454Z,1.10
2019-01-29T06:40:27.889Z,1.00
2019-01-29T06:42:58.669Z,1.10
2019-01-29T06:45:29.445Z,1.10
2019-01-29T06:48:00.177Z,1.20
2019-01-29T06:50:30.866Z,1.20
2019-01-29T06:53:01.787Z,1.20
2019-01-29T06:55:32.742Z,1.10
2019-01-29T06:58:03.524Z,1.20
2019-01-29T07:00:34.326Z,1.20
2019-01-29T07:03:05.482Z,1.20
2019-01-29T07:05:36.298Z,1.10
2019-01-29T07:08:07.513Z,1.10
2019-01-29T07:10:38.281Z,1.10
2019-01-29T07:13:09.009Z,1.10
2019-01-29T07:16:13.939Z,1.00
2019-01-29T07:18:56.077Z,1.00
2019-01-29T07:21:26.849Z,1.10
2019-01-29T07:23:57.575Z,1.10
2019-01-29T07:26:28.362Z,1.00
2019-01-29T07:28:59.193Z,1.10
2019-01-29T07:31:29.963Z,1.00
2019-01-29T07:34:00.726Z,1.00
2019-01-29T07:36:31.423Z,1.00
2019-01-29T07:39:02.246Z,1.00
2019-01-29T07:41:34.207Z,1.00
2019-01-29T07:44:05.048Z,1.10
2019-01-29T07:46:35.754Z,1.10
2019-01-29T07:49:06.485Z,1.10
2019-01-29T07:51:37.130Z,1.20
2019-01-29T07:54:07.797Z,1.20
2019-01-29T07:56:39.526Z,1.20
2019-01-29T07:59:10.244Z,1.30
2019-01-29T08:01:43.923Z,1.30
2019-01-29T08:04:14.711Z,1.30
2019-01-29T08:06:45.585Z,1.40
2019-01-29T08:09:16.356Z,1.40
2019-01-29T08:11:47.213Z,1.50
2019-01-29T08:14:18.054Z,1.50
2019-01-29T08:16:48.850Z,1.60
2019-01-29T08:19:19.671Z,1.60
2019-01-29T08:21:51.346Z,1.50
2019-01-29T08:24:23.335Z,1.60
2019-01-29T08:26:54.251Z,1.60
2019-01-29T08:29:25.075Z,1.60
2019-01-29T08:31:55.842Z,1.70
2019-01-29T08:34:26.978Z,1.70
2019-01-29T08:36:58.640Z,1.80
2019-01-29T08:39:31.206Z,1.80
2019-01-29T08:42:02.167Z,1.80
2019-01-29T08:44:33.096Z,1.80
2019-01-29T08:47:05.477Z,1.90
2019-01-29T08:49:36.318Z,1.90
2019-01-29T08:52:07.063Z,2.00
2019-01-29T08:54:37.849Z,2.00
2019-01-29T08:57:09.061Z,2.00
2019-01-29T08:59:39.789Z,2.10
2019-01-29T09:02:10.804Z,2.10
2019-01-29T09:04:41.621Z,2.10
2019-01-29T09:07:12.389Z,2.10
2019-01-29T09:09:43.565Z,2.10
2019-01-29T09:12:14.607Z,2.10
2019-01-29T09:14:45.262Z,2.10
2019-01-29T09:17:21.775Z,2.10
2019-01-29T09:19:54.990Z,2.20
2019-01-29T09:22:25.760Z,2.20
2019-01-29T09:24:57.472Z,2.30
2019-01-29T09:27:46.095Z,2.30
2019-01-29T09:30:17.166Z,2.30
2019-01-29T09:32:47.907Z,2.40
2019-01-29T09:35:19.829Z,2.40
2019-01-29T09:37:50.593Z,2.50
2019-01-29T09:40:26.718Z,2.50
2019-01-29T09:43:02.561Z,2.60
2019-01-29T09:45:33.313Z,2.60
2019-01-29T09:48:04.146Z,2.60
2019-01-29T09:50:35.002Z,2.60
2019-01-29T09:53:06.007Z,2.60
2019-01-29T09:55:36.787Z,2.60
2019-01-29T09:58:09.562Z,2.70
2019-01-29T10:00:41.950Z,2.70
2019-01-29T10:03:12.813Z,2.70
2019-01-29T10:05:43.606Z,2.70
2019-01-29T10:08:14.455Z,2.70
2019-01-29T10:10:45.356Z,2.80
2019-01-29T10:13:16.128Z,2.90
2019-01-29T10:15:47.168Z,2.90
2019-01-29T10:18:21.317Z,2.90
2019-01-29T10:20:52.100Z,3.00
2019-01-29T10:23:22.833Z,3.00
2019-01-29T10:25:53.667Z,3.10
2019-01-29T10:28:24.470Z,3.10
2019-01-29T10:30:55.243Z,3.10
2019-01-29T10:33:26.257Z,3.10
2019-01-29T10:35:58.832Z,3.10
2019-01-29T10:38:29.654Z,3.20
2019-01-29T10:41:04.786Z,3.30
2019-01-29T10:43:36.342Z,3.30
2019-01-29T10:46:07.145Z,3.40
2019-01-29T10:48:37.866Z,3.30
2019-01-29T10:51:08.709Z,3.40
2019-01-29T10:53:42.467Z,3.40
2019-01-29T10:56:13.246Z,3.50
2019-01-29T10:58:44.143Z,3.50
2019-01-29T11:01:18.049Z,3.70
2019-01-29T11:03:48.926Z,3.80
2019-01-29T11:06:19.761Z,3.80
2019-01-29T11:08:52.101Z,3.80
2019-01-29T11:11:22.826Z,3.90
2019-01-29T11:13:53.716Z,4.00
2019-01-29T11:16:24.555Z,4.10
2019-01-29T11:19:02.939Z,4.20
2019-01-29T11:21:29.203Z,4.30
2019-01-29T11:23:59.846Z,4.50
2019-01-29T11:26:30.588Z,4.70
2019-01-29T11:29:01.392Z,5.00
2019-01-29T11:31:32.310Z,5.10
2019-01-29T11:34:03.306Z,5.10
2019-01-29T11:36:35.833Z,5.60
2019-01-29T11:39:12.435Z,6.30
2019-01-29T11:41:48.194Z,6.70
2019-01-29T11:44:20.523Z,7.10
2019-01-29T11:46:51.214Z,7.30
2019-01-29T11:49:23.615Z,7.30
2019-01-29T11:51:57.093Z,7.60
2019-01-29T11:54:28.875Z,8.00
2019-01-29T11:56:59.658Z,7.80
2019-01-29T11:59:30.488Z,8.50
2019-01-29T12:02:01.421Z,9.20
2019-01-29T12:04:34.297Z,9.80
2019-01-29T12:07:05.142Z,9.10
2019-01-29T12:09:35.973Z,9.20
2019-01-29T12:12:06.935Z,8.70
2019-01-29T12:14:37.745Z,8.70
2019-01-29T12:17:08.563Z,8.20
2019-01-29T12:19:39.358Z,8.10
2019-01-29T12:22:10.165Z,8.50
2019-01-29T12:24:44.301Z,9.00
2019-01-29T12:27:15.590Z,8.80
2019-01-29T12:29:46.377Z,8.60
2019-01-29T12:32:17.186Z,8.80
2019-01-29T12:35:03.662Z,8.90
2019-01-29T12:37:38.616Z,9.40
2019-01-29T12:40:12.727Z,9.40
2019-01-29T12:42:43.513Z,9.20
2019-01-29T12:45:16.695Z,8.80
2019-01-29T12:47:47.889Z,8.60
2019-01-29T12:50:21.579Z,8.30
2019-01-29T12:53:11.406Z,8.60
2019-01-29T12:55:42.552Z,8.80
2019-01-29T12:58:13.321Z,9.40
2019-01-29T13:01:02.517Z,9.70
2019-01-29T13:03:33.324Z,9.40
2019-01-29T13:06:04.572Z,8.90
2019-01-29T13:08:35.317Z,8.80
2019-01-29T13:11:07.198Z,9.50
2019-01-29T13:13:38.036Z,9.90
2019-01-29T13:16:08.763Z,10.50
2019-01-29T13:18:39.545Z,10.10
2019-01-29T13:21:10.354Z,10.20
2019-01-29T13:23:41.210Z,9.70
2019-01-29T13:26:12.035Z,10.00
2019-01-29T13:28:43.327Z,10.40
2019-01-29T13:31:14.121Z,10.70
2019-01-29T13:33:45.992Z,10.80
2019-01-29T13:36:17.993Z,10.90
2019-01-29T13:38:48.691Z,10.70
2019-01-29T13:41:19.598Z,10.70
2019-01-29T13:43:52.069Z,10.40
2019-01-29T13:46:22.868Z,10.30
2019-01-29T13:48:53.609Z,10.10
2019-01-29T13:51:24.633Z,9.40
2019-01-29T13:53:55.540Z,9.20
2019-01-29T13:56:27.926Z,8.80
2019-01-29T13:58:58.741Z,8.40
2019-01-29T14:01:29.518Z,8.60
2019-01-29T14:04:05.961Z,9.00
2019-01-29T14:06:34.040Z,8.80
2019-01-29T14:09:09.362Z,9.00
2019-01-29T14:11:40.227Z,8.60
2019-01-29T14:14:11.065Z,8.10
2019-01-29T14:16:41.823Z,7.70
2019-01-29T14:19:14.091Z,8.20
2019-01-29T14:21:46.362Z,9.20
2019-01-29T14:24:19.480Z,9.40
2019-01-29T14:26:50.190Z,9.50
2019-01-29T14:29:21.061Z,9.30
2019-01-29T14:31:52.345Z,9.30
2019-01-29T14:34:26.652Z,8.50
2019-01-29T14:36:58.638Z,8.10
2019-01-29T14:39:34.092Z,7.80
2019-01-29T14:42:06.164Z,7.30
2019-01-29T14:44:42.018Z,6.80
2019-01-29T14:47:12.939Z,6.40
2019-01-29T14:49:43.888Z,6.20
2019-01-29T14:52:14.762Z,5.90
2019-01-29T14:54:45.523Z,5.70
2019-01-29T14:57:17.871Z,5.60
2019-01-29T14:59:48.832Z,5.40
2019-01-29T15:02:21.199Z,5.30
2019-01-29T15:04:51.982Z,5.20
2019-01-29T15:07:30.346Z,5.10
2019-01-29T15:09:55.307Z,5.00
2019-01-29T15:12:26.236Z,4.90
2019-01-29T15:14:57.618Z,4.90
2019-01-29T15:17:47.318Z,4.70
2019-01-29T15:20:18.141Z,4.70
2019-01-29T15:22:50.708Z,4.60
2019-01-29T15:25:21.566Z,4.50
2019-01-29T15:27:53.987Z,4.50
2019-01-29T15:30:28.035Z,4.50
2019-01-29T15:32:59.138Z,4.40
2019-01-29T15:35:30.065Z,4.40
2019-01-29T15:38:03.840Z,4.20
2019-01-29T15:40:40.584Z,4.20
2019-01-29T15:43:13.215Z,4.20
2019-01-29T15:45:45.653Z,4.10
2019-01-29T15:48:16.510Z,4.10
2019-01-29T15:50:47.336Z,4.00
2019-01-29T15:53:18.151Z,3.90
2019-01-29T15:55:49.043Z,4.00
2019-01-29T15:58:19.945Z,3.90
2019-01-29T16:00:50.815Z,3.80
2019-01-29T16:03:22.062Z,3.80
2019-01-29T16:05:59.741Z,3.70
2019-01-29T16:08:33.975Z,3.60
2019-01-29T16:11:24.505Z,3.70
2019-01-29T16:13:59.804Z,3.60
2019-01-29T16:16:59.242Z,3.40
2019-01-29T16:19:30.017Z,3.30
2019-01-29T16:22:01.071Z,3.30
2019-01-29T16:24:31.816Z,3.30
2019-01-29T16:27:06.990Z,3.20
2019-01-29T16:29:35.964Z,3.30
2019-01-29T16:32:08.403Z,3.20
2019-01-29T16:34:39.278Z,3.10
2019-01-29T16:37:11.282Z,3.10
2019-01-29T16:39:43.086Z,3.00
2019-01-29T16:42:15.471Z,2.90
2019-01-29T16:44:46.363Z,3.10
2019-01-29T16:47:17.196Z,3.00
2019-01-29T16:49:47.947Z,2.90
2019-01-29T16:52:18.692Z,2.90
2019-01-29T16:54:49.478Z,3.00
2019-01-29T16:57:21.942Z,2.80
2019-01-29T16:59:52.810Z,2.80
2019-01-29T17:02:23.591Z,2.80
2019-01-29T17:04:54.423Z,2.80
2019-01-29T17:07:25.236Z,2.80
2019-01-29T17:09:55.999Z,2.80
2019-01-29T17:12:26.826Z,2.70
2019-01-29T17:14:59.115Z,2.60
2019-01-29T17:17:29.947Z,2.70
2019-01-29T17:20:00.761Z,2.70
2019-01-29T17:22:31.674Z,2.70
2019-01-29T17:25:02.438Z,2.60
2019-01-29T17:27:40.072Z,2.70
2019-01-29T17:30:07.746Z,2.60
2019-01-29T17:32:38.601Z,2.60
2019-01-29T17:35:09.519Z,2.60
2019-01-29T17:37:42.689Z,2.40
2019-01-29T17:40:14.227Z,2.40
2019-01-29T17:42:46.790Z,2.40
2019-01-29T17:45:21.370Z,2.40
2019-01-29T17:47:52.725Z,2.40
2019-01-29T17:50:29.619Z,2.50
2019-01-29T17:53:00.390Z,2.40
2019-01-29T17:55:32.790Z,2.30
2019-01-29T17:58:03.707Z,2.30
2019-01-29T18:00:35.430Z,2.30
2019-01-29T18:03:06.805Z,2.30
2019-01-29T18:05:37.630Z,2.20
2019-01-29T18:08:08.391Z,2.20
2019-01-29T18:10:39.423Z,2.30
2019-01-29T18:13:11.819Z,2.30
2019-01-29T18:15:42.605Z,2.30
2019-01-29T18:18:14.010Z,2.20
2019-01-29T18:20:44.824Z,2.30
2019-01-29T18:23:15.895Z,2.30
2019-01-29T18:25:46.661Z,2.30
2019-01-29T18:28:17.468Z,2.30
2019-01-29T18:30:48.231Z,2.30
2019-01-29T18:33:43.661Z,2.50
2019-01-29T18:36:14.570Z,2.40
2019-01-29T18:38:45.406Z,2.40
2019-01-29T18:41:17.858Z,2.40
2019-01-29T18:43:48.657Z,2.40
2019-01-29T18:46:19.858Z,2.40
2019-01-29T18:48:50.667Z,2.30
2019-01-29T18:51:22.348Z,2.30
2019-01-29T18:53:53.060Z,2.30
2019-01-29T18:58:11.673Z,2.30
2019-01-29T19:00:54.391Z,2.40
2019-01-29T19:03:18.841Z,2.40
2019-01-29T19:05:49.718Z,2.40
2019-01-29T19:08:23.819Z,2.40
2019-01-29T19:11:13.246Z,2.30
2019-01-29T19:13:44.101Z,2.40
2019-01-29T19:16:15.735Z,2.40
2019-01-29T19:18:46.623Z,2.50
2019-01-29T19:21:17.476Z,2.50
2019-01-29T19:23:48.246Z,2.40
2019-01-29T19:26:19.275Z,2.40
2019-01-29T19:28:50.111Z,2.40
2019-01-29T19:31:20.765Z,2.40
2019-01-29T19:33:51.543Z,2.40
2019-01-29T19:36:22.267Z,2.40
2019-01-29T19:39:22.562Z,2.40
2019-01-29T19:41:58.748Z,2.30
2019-01-29T19:44:29.418Z,2.40
2019-01-29T19:47:04.821Z,2.30
2019-01-29T19:49:49.601Z,2.30
2019-01-29T19:52:27.240Z,2.50
2019-01-29T19:55:06.522Z,2.40
2019-01-29T19:57:48.007Z,2.30
2019-01-29T20:00:44.038Z,2.30
2019-01-29T20:03:29.512Z,2.30
2019-01-29T20:06:15.990Z,2.30
2019-01-29T20:08:49.360Z,2.30
2019-01-29T20:11:21.029Z,2.30
2019-01-29T20:13:51.793Z,2.30
2019-01-29T20:16:23.287Z,2.30
2019-01-29T20:18:54.120Z,2.30
2019-01-29T20:21:25.029Z,2.30
2019-01-29T20:23:55.955Z,2.30
2019-01-29T20:26:26.775Z,2.40
2019-01-29T20:28:58.026Z,2.40
2019-01-29T20:31:29.034Z,2.40
2019-01-29T20:34:01.132Z,2.30
2019-01-29T20:36:33.220Z,2.40
2019-01-29T20:39:09.152Z,2.30
2019-01-29T20:41:40.917Z,2.30
2019-01-29T20:44:11.890Z,2.30
2019-01-29T20:46:42.944Z,2.30
2019-01-29T20:49:13.925Z,2.30
2019-01-29T20:51:44.802Z,2.30
2019-01-29T20:54:15.619Z,2.30
2019-01-29T20:56:46.427Z,2.30
2019-01-29T20:59:17.406Z,2.20
2019-01-29T21:01:48.944Z,2.20
2019-01-29T21:04:19.957Z,2.20
2019-01-29T21:06:50.705Z,2.10
2019-01-29T21:09:23.697Z,2.20
2019-01-29T21:11:54.697Z,2.20
2019-01-29T21:14:25.744Z,2.10
2019-01-29T21:16:57.094Z,2.10
2019-01-29T21:19:29.672Z,2.10
2019-01-29T21:22:00.577Z,2.00
2019-01-29T21:24:31.431Z,1.90
2019-01-29T21:27:02.277Z,1.90
2019-01-29T21:29:34.006Z,1.90
2019-01-29T21:32:06.308Z,1.90
2019-01-29T21:34:37.071Z,1.90
2019-01-29T21:37:08.167Z,2.00
2019-01-29T21:39:39.035Z,2.00
2019-01-29T21:42:09.810Z,1.90
2019-01-29T21:44:40.632Z,1.90
2019-01-29T21:47:12.955Z,1.80
2019-01-29T21:49:43.931Z,1.80
2019-01-29T21:52:14.702Z,1.70
2019-01-29T21:54:45.391Z,1.70
2019-01-29T21:57:16.112Z,1.70
2019-01-29T21:59:48.915Z,1.70
2019-01-29T22:02:20.895Z,1.70
2019-01-29T22:04:51.794Z,1.70
2019-01-29T22:07:22.598Z,1.70
2019-01-29T22:09:53.672Z,1.70
2019-01-29T22:13:22.367Z,1.80
2019-01-29T22:15:53.134Z,1.70
2019-01-29T22:18:24.387Z,1.70
2019-01-29T22:20:55.230Z,1.60
2019-01-29T22:23:26.047Z,1.60
2019-01-29T22:25:56.838Z,1.60
2019-01-29T22:28:27.648Z,1.50
2019-01-29T22:30:58.368Z,1.50
2019-01-29T22:33:29.160Z,1.50
2019-01-29T22:35:59.922Z,1.50
2019-01-29T22:38:30.727Z,1.60
2019-01-29T22:41:01.611Z,1.50
2019-01-29T22:43:32.368Z,1.50
2019-01-29T22:46:03.157Z,1.50
2019-01-29T22:48:34.140Z,1.50
2019-01-29T22:51:04.989Z,1.50
2019-01-29T22:53:35.717Z,1.50
2019-01-29T22:56:06.477Z,1.50
2019-01-29T22:58:37.239Z,1.40
2019-01-29T23:01:35.081Z,1.50
2019-01-29T23:04:26.192Z,1.50
2019-01-29T23:07:29.303Z,1.40
2019-01-29T23:10:00.341Z,1.50
2019-01-29T23:12:32.305Z,1.50
2019-01-29T23:15:04.821Z,1.50
2019-01-29T23:17:35.722Z,1.40
2019-01-29T23:20:07.543Z,1.40
2019-01-29T23:22:38.430Z,1.40
2019-01-29T23:25:09.613Z,1.40
2019-01-29T23:27:40.382Z,1.50
2019-01-29T23:30:14.562Z,1.50
2019-01-29T23:32:45.282Z,1.50
2019-01-29T23:35:16.217Z,1.50
2019-01-29T23:37:46.890Z,1.50
2019-01-29T23:40:17.668Z,1.50
2019-01-29T23:42:48.450Z,1.40
2019-01-29T23:45:19.214Z,1.40
2019-01-29T23:48:00.338Z,1.40
2019-01-29T23:50:31.686Z,1.40
2019-01-29T23:53:02.475Z,1.40
2019-01-29T23:55:33.344Z,1.50
2019-01-29T23:58:04.081Z,1.40
